createdAt,value
2017-09-30T00:00:09.336Z,57.00
2017-09-30T00:01:30.099Z,51.00
2017-09-30T00:02:51.522Z,60.30
2017-09-30T00:04:12.458Z,59.00
2017-09-30T00:05:33.072Z,64.90
2017-09-30T00:06:53.559Z,62.90
2017-09-30T00:08:13.941Z,67.40
2017-09-30T00:09:34.173Z,74.20
2017-09-30T00:10:55.267Z,71.50
2017-09-30T00:12:15.765Z,70.20
2017-09-30T00:13:36.102Z,69.70
2017-09-30T00:14:57.203Z,73.00
2017-09-30T00:16:18.840Z,80.00
2017-09-30T00:17:39.173Z,80.10
2017-09-30T00:18:59.802Z,79.60
2017-09-30T00:20:20.148Z,75.90
2017-09-30T00:21:40.601Z,73.50
2017-09-30T00:23:01.107Z,70.00
2017-09-30T00:24:21.547Z,69.00
2017-09-30T00:25:41.778Z,67.50
2017-09-30T00:27:02.265Z,64.40
2017-09-30T00:28:22.416Z,63.90
2017-09-30T00:29:43.326Z,66.20
2017-09-30T00:31:03.628Z,62.50
2017-09-30T00:32:24.096Z,65.80
2017-09-30T00:33:45.035Z,64.50
2017-09-30T00:35:05.327Z,65.70
2017-09-30T00:36:25.847Z,63.50
2017-09-30T00:37:46.359Z,67.70
2017-09-30T00:39:06.818Z,78.30
2017-09-30T00:40:27.308Z,78.10
2017-09-30T00:41:47.645Z,79.50
2017-09-30T00:43:08.054Z,83.70
2017-09-30T00:44:28.362Z,85.90
2017-09-30T00:45:48.801Z,87.10
2017-09-30T00:47:09.157Z,84.60
2017-09-30T00:48:30.086Z,81.10
2017-09-30T00:49:50.446Z,77.80
2017-09-30T00:51:10.910Z,80.10
2017-09-30T00:52:31.378Z,81.50
2017-09-30T00:53:51.862Z,83.10
2017-09-30T00:55:12.236Z,85.20
2017-09-30T00:56:32.688Z,84.30
2017-09-30T00:57:54.605Z,88.70
2017-09-30T00:59:15.316Z,88.50
2017-09-30T01:00:35.804Z,89.50
2017-09-30T01:01:56.481Z,96.30
2017-09-30T01:03:17.093Z,107.80
2017-09-30T01:04:37.545Z,109.60
2017-09-30T01:05:58.441Z,108.20
2017-09-30T01:07:18.964Z,106.80
2017-09-30T01:08:39.740Z,100.10
2017-09-30T01:10:00.726Z,96.40
2017-09-30T01:11:21.140Z,96.00
2017-09-30T01:12:42.261Z,94.60
2017-09-30T01:14:02.774Z,100.40
2017-09-30T01:15:23.162Z,92.20
2017-09-30T01:16:43.764Z,93.80
2017-09-30T01:18:04.512Z,96.90
2017-09-30T01:19:24.887Z,102.10
2017-09-30T01:20:45.160Z,104.90
2017-09-30T01:22:05.757Z,104.00
2017-09-30T01:23:26.189Z,103.30
2017-09-30T01:24:46.717Z,104.40
2017-09-30T01:26:07.382Z,108.90
2017-09-30T01:27:28.474Z,107.90
2017-09-30T01:28:49.034Z,104.10
2017-09-30T01:30:09.570Z,107.80
2017-09-30T01:31:30.562Z,105.60
2017-09-30T01:32:51.383Z,110.40
2017-09-30T01:34:11.813Z,105.00
2017-09-30T01:35:32.200Z,105.20
2017-09-30T01:36:52.513Z,100.40
2017-09-30T01:38:12.977Z,96.30
2017-09-30T01:39:33.394Z,93.20
2017-09-30T01:40:53.827Z,93.00
2017-09-30T01:42:15.243Z,89.10
2017-09-30T01:43:35.621Z,93.30
2017-09-30T01:44:56.528Z,94.20
2017-09-30T01:46:17.086Z,96.50
2017-09-30T01:47:38.187Z,96.80
2017-09-30T01:48:59.045Z,101.90
2017-09-30T01:50:19.581Z,99.60
2017-09-30T01:51:39.899Z,102.30
2017-09-30T01:53:01.267Z,101.50
2017-09-30T01:54:22.369Z,97.10
2017-09-30T01:55:42.891Z,100.40
2017-09-30T01:57:04.172Z,98.10
2017-09-30T01:58:24.454Z,91.90
2017-09-30T01:59:45.110Z,95.60
2017-09-30T02:01:05.797Z,97.10
2017-09-30T02:02:26.330Z,93.80
2017-09-30T02:03:47.515Z,92.40
2017-09-30T02:05:08.156Z,95.80
2017-09-30T02:06:28.585Z,95.80
2017-09-30T02:07:49.217Z,91.30
2017-09-30T02:09:09.903Z,94.70
2017-09-30T02:10:30.560Z,93.40
2017-09-30T02:11:51.262Z,92.60
2017-09-30T02:13:11.804Z,104.70
2017-09-30T02:14:32.418Z,93.80
2017-09-30T02:15:53.019Z,98.50
2017-09-30T02:17:13.649Z,102.00
2017-09-30T02:18:34.069Z,104.90
2017-09-30T02:19:54.829Z,104.30
2017-09-30T02:21:15.403Z,104.70
2017-09-30T02:22:35.938Z,106.60
2017-09-30T02:23:56.723Z,108.80
2017-09-30T02:25:17.233Z,109.20
2017-09-30T02:26:37.637Z,102.50
2017-09-30T02:27:58.233Z,102.10
2017-09-30T02:29:19.307Z,107.90
2017-09-30T02:30:39.791Z,104.20
2017-09-30T02:32:01.120Z,101.30
2017-09-30T02:33:21.662Z,111.50
2017-09-30T02:34:42.104Z,114.20
2017-09-30T02:36:02.713Z,112.80
2017-09-30T02:37:23.569Z,117.20
2017-09-30T02:38:44.107Z,101.90
2017-09-30T02:40:04.601Z,94.50
2017-09-30T02:41:25.095Z,90.80
2017-09-30T02:42:46.489Z,89.60
2017-09-30T02:44:06.941Z,110.20
2017-09-30T02:45:27.486Z,106.40
2017-09-30T02:46:47.845Z,98.80
2017-09-30T02:48:08.470Z,101.30
2017-09-30T02:49:29.571Z,104.50
2017-09-30T02:50:50.152Z,113.10
2017-09-30T02:52:10.905Z,105.30
2017-09-30T02:53:31.661Z,110.70
2017-09-30T02:54:52.207Z,88.30
2017-09-30T02:56:12.789Z,96.00
2017-09-30T02:57:33.180Z,79.10
2017-09-30T02:58:53.716Z,79.80
2017-09-30T03:00:14.222Z,77.10
2017-09-30T03:01:34.854Z,74.60
2017-09-30T03:02:55.523Z,81.90
2017-09-30T03:04:16.155Z,72.70
2017-09-30T03:05:36.744Z,65.70
2017-09-30T03:06:57.437Z,58.30
2017-09-30T03:08:18.222Z,55.60
2017-09-30T03:09:38.462Z,96.50
2017-09-30T03:10:59.072Z,84.20
2017-09-30T03:12:20.464Z,70.30
2017-09-30T03:13:41.404Z,58.60
2017-09-30T03:15:01.968Z,68.40
2017-09-30T03:16:22.521Z,77.80
2017-09-30T03:17:42.791Z,73.40
2017-09-30T03:19:03.268Z,71.50
2017-09-30T03:20:24.387Z,72.50
2017-09-30T03:21:44.898Z,75.50
2017-09-30T03:23:05.477Z,65.60
2017-09-30T03:24:25.981Z,84.50
2017-09-30T03:25:46.597Z,74.90
2017-09-30T03:27:07.173Z,75.70
2017-09-30T03:28:27.594Z,71.30
2017-09-30T03:29:48.008Z,72.30
2017-09-30T03:36:10.717Z,52.20
2017-09-30T03:37:31.217Z,49.20
2017-09-30T03:38:52.148Z,49.50
2017-09-30T03:40:12.674Z,48.00
2017-09-30T03:41:33.395Z,54.20
2017-09-30T03:42:54.328Z,52.30
2017-09-30T03:44:15.141Z,52.70
2017-09-30T03:45:35.568Z,59.40
2017-09-30T03:46:56.264Z,56.70
2017-09-30T03:48:17.350Z,60.80
2017-09-30T03:49:37.859Z,66.70
2017-09-30T03:50:58.448Z,67.70
2017-09-30T03:52:19.180Z,75.30
2017-09-30T03:53:39.789Z,76.50
2017-09-30T03:55:00.417Z,87.10
2017-09-30T03:56:20.993Z,73.50
2017-09-30T03:57:41.564Z,75.20
2017-09-30T03:59:02.973Z,81.70
2017-09-30T04:00:23.297Z,68.50
2017-09-30T04:01:43.826Z,69.30
2017-09-30T04:03:04.726Z,69.80
2017-09-30T04:04:25.358Z,61.10
2017-09-30T04:05:45.852Z,61.10
2017-09-30T04:07:06.254Z,62.90
2017-09-30T04:08:26.865Z,54.50
2017-09-30T04:09:47.177Z,47.40
2017-09-30T04:11:07.680Z,44.90
2017-09-30T04:12:28.119Z,47.30
2017-09-30T04:13:48.683Z,43.30
2017-09-30T04:15:09.187Z,39.50
2017-09-30T04:16:29.761Z,39.40
2017-09-30T04:17:50.671Z,41.70
2017-09-30T04:19:11.257Z,41.60
2017-09-30T04:20:32.490Z,39.80
2017-09-30T04:21:53.128Z,44.30
2017-09-30T04:23:13.649Z,46.40
2017-09-30T04:24:34.636Z,45.50
2017-09-30T04:25:55.237Z,42.00
2017-09-30T04:27:16.069Z,44.80
2017-09-30T04:28:36.601Z,41.90
2017-09-30T04:29:57.156Z,45.10
2017-09-30T04:31:18.191Z,55.70
2017-09-30T04:32:38.516Z,53.90
2017-09-30T04:33:59.285Z,52.70
2017-09-30T04:35:20.040Z,48.20
2017-09-30T04:36:40.426Z,49.10
2017-09-30T04:38:00.958Z,43.20
2017-09-30T04:39:21.416Z,48.80
2017-09-30T04:40:41.902Z,46.70
2017-09-30T04:42:02.884Z,46.70
2017-09-30T04:43:23.284Z,42.50
2017-09-30T04:44:43.631Z,41.90
2017-09-30T04:46:04.142Z,43.90
2017-09-30T04:47:24.788Z,45.00
2017-09-30T04:48:45.340Z,47.10
2017-09-30T04:50:06.611Z,48.70
2017-09-30T04:51:26.996Z,46.10
2017-09-30T04:52:47.539Z,41.90
2017-09-30T04:54:08.573Z,37.50
2017-09-30T04:55:28.977Z,39.20
2017-09-30T04:56:49.487Z,42.20
2017-09-30T04:58:11.501Z,43.30
2017-09-30T04:59:31.956Z,45.80
2017-09-30T05:00:52.443Z,44.40
2017-09-30T05:02:13.024Z,41.40
2017-09-30T05:03:33.444Z,41.60
2017-09-30T05:04:53.778Z,38.90
2017-09-30T05:06:14.781Z,36.70
2017-09-30T05:07:35.354Z,38.60
2017-09-30T05:08:56.076Z,42.30
2017-09-30T05:10:16.489Z,38.70
2017-09-30T05:11:36.881Z,38.50
2017-09-30T05:12:57.605Z,38.10
2017-09-30T05:14:18.335Z,42.10
2017-09-30T05:15:38.797Z,45.90
2017-09-30T05:16:59.275Z,40.90
2017-09-30T05:18:19.682Z,41.80
2017-09-30T05:19:40.806Z,40.20
2017-09-30T05:21:01.591Z,38.90
2017-09-30T05:22:22.178Z,40.20
2017-09-30T05:23:42.656Z,42.80
2017-09-30T05:25:03.413Z,48.40
2017-09-30T05:26:24.061Z,50.70
2017-09-30T05:27:44.649Z,55.90
2017-09-30T05:29:05.026Z,56.70
2017-09-30T05:30:26.315Z,55.80
2017-09-30T05:31:46.601Z,55.50
2017-09-30T05:33:07.259Z,52.70
2017-09-30T05:34:28.389Z,57.70
2017-09-30T05:35:49.020Z,52.50
2017-09-30T05:37:09.690Z,51.90
2017-09-30T05:38:30.977Z,52.60
2017-09-30T05:39:51.743Z,53.60
2017-09-30T05:41:12.567Z,58.30
2017-09-30T05:42:33.204Z,56.60
2017-09-30T05:43:53.900Z,55.30
2017-09-30T05:45:15.482Z,52.00
2017-09-30T05:46:36.081Z,50.90
2017-09-30T05:47:56.862Z,49.40
2017-09-30T05:49:17.532Z,49.90
2017-09-30T05:50:38.055Z,50.80
2017-09-30T05:51:58.866Z,46.60
2017-09-30T05:53:19.481Z,46.20
2017-09-30T05:54:40.353Z,48.50
2017-09-30T05:56:01.151Z,48.80
2017-09-30T05:57:22.326Z,49.30
2017-09-30T05:58:42.931Z,48.60
2017-09-30T06:00:03.452Z,49.10
2017-09-30T06:01:25.163Z,48.50
2017-09-30T06:02:45.734Z,46.50
2017-09-30T06:04:06.229Z,49.40
2017-09-30T06:05:27.010Z,51.60
2017-09-30T06:06:47.632Z,51.60
2017-09-30T06:08:08.618Z,50.10
2017-09-30T06:09:29.176Z,53.10
2017-09-30T06:10:49.753Z,54.50
2017-09-30T06:12:11.347Z,52.70
2017-09-30T06:13:31.944Z,49.00
2017-09-30T06:14:52.655Z,48.60
2017-09-30T06:16:13.284Z,45.00
2017-09-30T06:17:34.053Z,46.60
2017-09-30T06:18:54.847Z,47.10
2017-09-30T06:20:15.660Z,49.30
2017-09-30T06:21:36.299Z,57.60
2017-09-30T06:22:57.196Z,55.10
2017-09-30T06:24:18.185Z,54.10
2017-09-30T06:25:39.425Z,55.50
2017-09-30T06:27:00.092Z,50.50
2017-09-30T06:28:21.403Z,55.60
2017-09-30T06:29:42.097Z,56.20
2017-09-30T06:31:02.866Z,52.00
2017-09-30T06:32:23.396Z,51.80
2017-09-30T06:33:45.147Z,48.70
2017-09-30T06:35:05.868Z,46.20
2017-09-30T06:36:26.393Z,51.00
2017-09-30T06:37:46.961Z,52.00
2017-09-30T06:39:07.608Z,52.20
2017-09-30T06:40:28.316Z,50.40
2017-09-30T06:41:48.922Z,51.80
2017-09-30T06:43:09.633Z,50.10
2017-09-30T06:44:30.165Z,53.80
2017-09-30T06:45:51.021Z,53.90
2017-09-30T06:47:11.611Z,50.70
2017-09-30T06:48:32.341Z,55.60
2017-09-30T06:49:53.332Z,59.60
2017-09-30T06:51:13.895Z,61.20
2017-09-30T06:52:36.098Z,55.80
2017-09-30T06:53:57.049Z,53.20
2017-09-30T06:55:17.722Z,52.90
2017-09-30T06:56:38.876Z,55.60
2017-09-30T06:57:59.526Z,54.80
2017-09-30T06:59:20.426Z,56.90
2017-09-30T07:00:42.312Z,53.30
2017-09-30T07:02:03.177Z,54.00
2017-09-30T07:03:23.642Z,57.50
2017-09-30T07:04:44.209Z,54.20
2017-09-30T07:06:05.144Z,54.40
2017-09-30T07:07:25.866Z,50.80
2017-09-30T07:08:46.528Z,50.70
2017-09-30T07:10:07.241Z,45.50
2017-09-30T07:11:28.093Z,45.00
2017-09-30T07:12:49.048Z,43.10
2017-09-30T07:14:10.581Z,43.70
2017-09-30T07:15:31.209Z,42.80
2017-09-30T07:16:52.347Z,48.10
2017-09-30T07:18:13.116Z,49.40
2017-09-30T07:19:33.779Z,42.50
2017-09-30T07:20:54.525Z,46.30
2017-09-30T07:22:15.473Z,43.20
2017-09-30T07:23:36.290Z,39.50
2017-09-30T07:24:57.063Z,33.90
2017-09-30T07:26:17.764Z,37.60
2017-09-30T07:27:38.441Z,38.50
2017-09-30T07:28:59.274Z,38.50
2017-09-30T07:30:19.896Z,41.00
2017-09-30T07:31:40.639Z,49.00
2017-09-30T07:33:02.944Z,42.00
2017-09-30T07:34:23.480Z,45.00
2017-09-30T07:35:44.147Z,43.90
2017-09-30T07:37:05.299Z,39.50
2017-09-30T07:38:26.077Z,47.30
2017-09-30T07:39:46.837Z,44.50
2017-09-30T07:41:08.167Z,40.50
2017-09-30T07:42:28.913Z,34.10
2017-09-30T07:43:49.595Z,32.70
2017-09-30T07:45:10.582Z,40.40
2017-09-30T07:46:31.261Z,39.90
2017-09-30T07:47:53.304Z,44.10
2017-09-30T07:49:14.213Z,39.80
2017-09-30T07:50:35.213Z,34.60
2017-09-30T07:51:57.054Z,38.60
2017-09-30T07:53:18.083Z,37.40
2017-09-30T07:54:38.765Z,38.10
2017-09-30T07:56:00.085Z,37.70
2017-09-30T07:57:20.899Z,27.80
2017-09-30T07:58:41.811Z,30.10
2017-09-30T08:00:03.502Z,31.70
2017-09-30T08:01:24.140Z,32.80
2017-09-30T08:02:44.860Z,29.50
2017-09-30T08:04:05.490Z,29.00
2017-09-30T08:05:26.418Z,29.60
2017-09-30T08:06:47.318Z,31.60
2017-09-30T08:08:07.958Z,28.40
2017-09-30T08:15:58.676Z,36.00
2017-09-30T08:17:19.457Z,37.20
2017-09-30T08:18:40.044Z,34.90
2017-09-30T08:20:02.444Z,40.50
2017-09-30T08:21:23.339Z,42.10
2017-09-30T08:22:44.037Z,43.20
2017-09-30T08:24:04.931Z,38.40
2017-09-30T08:25:26.279Z,32.80
2017-09-30T08:26:47.000Z,39.00
2017-09-30T08:28:08.242Z,36.00
2017-09-30T08:29:29.025Z,33.70
2017-09-30T08:30:49.934Z,41.90
2017-09-30T08:32:10.867Z,38.70
2017-09-30T08:33:32.423Z,39.00
2017-09-30T08:34:53.294Z,36.90
2017-09-30T08:36:14.130Z,35.40
2017-09-30T08:37:35.823Z,29.30
2017-09-30T08:38:56.554Z,34.20
2017-09-30T08:40:18.472Z,39.90
2017-09-30T08:41:39.069Z,40.20
2017-09-30T08:43:05.406Z,39.90
2017-09-30T08:44:26.498Z,37.50
2017-09-30T08:45:47.190Z,31.80
2017-09-30T08:47:07.940Z,36.30
2017-09-30T08:48:28.888Z,36.10
2017-09-30T08:49:49.842Z,38.20
2017-09-30T08:51:10.458Z,26.50
2017-09-30T08:52:31.205Z,35.30
2017-09-30T08:53:52.220Z,36.40
2017-09-30T08:55:12.980Z,34.00
2017-09-30T08:56:34.728Z,31.70
2017-09-30T08:57:56.079Z,37.00
2017-09-30T08:59:16.736Z,33.30
2017-09-30T09:00:37.416Z,38.20
2017-09-30T09:01:58.361Z,32.90
2017-09-30T09:03:19.271Z,31.30
2017-09-30T09:04:40.413Z,37.30
2017-09-30T09:06:01.922Z,40.00
2017-09-30T09:07:23.485Z,37.50
2017-09-30T09:08:46.704Z,38.10
2017-09-30T09:10:07.425Z,38.90
2017-09-30T09:11:29.090Z,40.00
2017-09-30T09:12:50.733Z,37.00
2017-09-30T09:14:12.276Z,31.70
2017-09-30T09:15:33.606Z,23.30
2017-09-30T09:16:56.438Z,29.20
2017-09-30T09:18:19.355Z,26.60
2017-09-30T09:19:40.195Z,32.50
2017-09-30T09:21:14.433Z,30.20
2017-09-30T09:22:36.543Z,29.10
2017-09-30T09:23:59.170Z,31.60
2017-09-30T09:25:20.659Z,36.90
2017-09-30T09:26:41.934Z,33.30
2017-09-30T09:28:02.719Z,33.50
2017-09-30T09:29:24.979Z,38.00
2017-09-30T09:30:50.637Z,39.40
2017-09-30T09:32:13.042Z,41.00
2017-09-30T09:33:36.147Z,39.90
2017-09-30T09:34:59.941Z,44.50
2017-09-30T09:36:23.134Z,0.00
2017-09-30T09:37:44.416Z,0.00
2017-09-30T09:39:06.231Z,40.50
2017-09-30T09:40:28.594Z,45.60
2017-09-30T09:41:50.172Z,41.00
2017-09-30T09:43:12.347Z,43.70
2017-09-30T09:44:34.452Z,47.00
2017-09-30T09:45:59.797Z,46.80
2017-09-30T09:47:21.473Z,38.00
2017-09-30T09:48:43.723Z,38.70
2017-09-30T09:50:05.273Z,38.00
2017-09-30T09:51:27.831Z,40.30
2017-09-30T09:52:48.875Z,38.70
2017-09-30T09:54:11.205Z,42.20
2017-09-30T09:55:34.638Z,40.80
2017-09-30T09:56:56.856Z,41.80
2017-09-30T09:58:18.450Z,37.40
2017-09-30T09:59:39.860Z,35.70
2017-09-30T10:01:06.532Z,36.20
2017-09-30T10:02:27.862Z,34.50
2017-09-30T10:03:49.257Z,39.10
2017-09-30T10:05:13.505Z,33.50
2017-09-30T10:06:44.294Z,41.20
2017-09-30T10:08:06.045Z,34.60
2017-09-30T10:09:27.089Z,35.90
2017-09-30T10:10:53.435Z,37.60
2017-09-30T10:12:15.722Z,38.10
2017-09-30T10:13:36.474Z,34.10
2017-09-30T10:14:57.839Z,36.10
2017-09-30T10:16:18.977Z,39.10
2017-09-30T10:17:39.683Z,32.30
2017-09-30T10:19:00.773Z,28.40
2017-09-30T10:20:22.885Z,28.50
2017-09-30T10:21:43.526Z,29.40
2017-09-30T10:23:04.337Z,29.80
2017-09-30T10:24:25.055Z,34.50
2017-09-30T10:25:45.607Z,33.20
2017-09-30T10:27:08.203Z,31.50
2017-09-30T10:28:29.004Z,28.20
2017-09-30T10:29:51.402Z,27.50
2017-09-30T10:31:12.135Z,24.30
2017-09-30T10:32:33.564Z,22.80
2017-09-30T10:33:54.532Z,24.40
2017-09-30T10:35:16.315Z,27.60
2017-09-30T10:36:37.656Z,29.30
2017-09-30T10:37:58.883Z,25.00
2017-09-30T10:39:19.655Z,28.10
2017-09-30T10:40:42.287Z,27.10
2017-09-30T10:42:03.732Z,25.80
2017-09-30T10:43:24.872Z,30.70
2017-09-30T10:44:45.871Z,28.10
2017-09-30T10:46:07.023Z,26.30
2017-09-30T10:47:28.609Z,32.00
2017-09-30T10:48:50.782Z,32.10
2017-09-30T10:50:12.796Z,38.90
2017-09-30T10:51:34.790Z,35.50
2017-09-30T10:52:56.009Z,37.30
2017-09-30T10:54:17.106Z,34.30
2017-09-30T10:55:42.115Z,29.20
2017-09-30T10:57:02.888Z,0.00
2017-09-30T10:58:24.700Z,32.60
2017-09-30T10:59:46.823Z,24.40
2017-09-30T11:01:08.142Z,31.70
2017-09-30T11:02:29.816Z,21.80
2017-09-30T11:03:51.769Z,26.70
2017-09-30T11:05:13.409Z,26.40
2017-09-30T11:06:35.356Z,26.20
2017-09-30T11:07:56.972Z,25.20
2017-09-30T11:09:20.782Z,25.80
2017-09-30T11:10:48.405Z,0.00
2017-09-30T11:12:09.711Z,32.00
2017-09-30T11:13:34.065Z,31.50
2017-09-30T11:14:55.144Z,27.70
2017-09-30T11:16:17.175Z,31.10
2017-09-30T11:17:42.961Z,0.00
2017-09-30T11:19:06.373Z,26.30
2017-09-30T11:20:29.511Z,0.00
2017-09-30T11:21:51.876Z,0.00
2017-09-30T11:23:13.637Z,35.50
2017-09-30T11:24:34.406Z,31.30
2017-09-30T11:25:55.450Z,27.90
2017-09-30T11:27:16.618Z,31.10
2017-09-30T11:28:38.312Z,29.70
2017-09-30T11:29:59.290Z,30.30
2017-09-30T11:31:20.149Z,21.30
2017-09-30T11:32:40.985Z,25.20
2017-09-30T11:34:02.096Z,25.80
2017-09-30T11:35:22.814Z,31.20
2017-09-30T11:36:43.589Z,25.90
2017-09-30T11:38:04.454Z,23.40
2017-09-30T11:39:25.396Z,17.90
2017-09-30T11:40:46.604Z,15.60
2017-09-30T11:42:08.487Z,19.50
2017-09-30T11:43:32.526Z,19.00
2017-09-30T11:44:53.750Z,0.00
2017-09-30T11:46:14.556Z,12.00
2017-09-30T11:47:35.335Z,15.00
2017-09-30T11:48:57.179Z,16.20
2017-09-30T11:55:56.292Z,13.90
2017-09-30T11:57:16.984Z,14.90
2017-09-30T11:58:37.820Z,13.90
2017-09-30T11:59:58.548Z,14.70
2017-09-30T12:01:20.395Z,44.40
2017-09-30T12:02:41.874Z,21.70
2017-09-30T12:04:02.941Z,31.30
2017-09-30T12:05:24.487Z,15.80
2017-09-30T12:06:45.420Z,14.40
2017-09-30T12:08:06.659Z,13.80
2017-09-30T12:09:28.433Z,16.50
2017-09-30T12:10:50.729Z,13.00
2017-09-30T12:12:11.855Z,14.40
2017-09-30T12:13:33.697Z,15.90
2017-09-30T12:14:54.728Z,18.00
2017-09-30T12:16:15.811Z,13.20
2017-09-30T12:17:37.907Z,17.70
2017-09-30T12:18:59.188Z,15.30
2017-09-30T12:20:20.844Z,13.20
2017-09-30T12:21:41.997Z,11.30
2017-09-30T12:23:03.355Z,12.20
2017-09-30T12:24:24.236Z,13.10
2017-09-30T12:25:45.065Z,14.20
2017-09-30T12:27:06.254Z,16.30
2017-09-30T12:28:29.686Z,12.80
2017-09-30T12:29:50.730Z,14.30
2017-09-30T12:31:12.119Z,12.10
2017-09-30T12:32:33.362Z,44.40
2017-09-30T12:33:54.653Z,16.20
2017-09-30T12:35:16.013Z,16.00
2017-09-30T12:36:36.991Z,15.30
2017-09-30T12:37:57.775Z,17.30
2017-09-30T12:39:18.592Z,13.80
2017-09-30T12:40:39.453Z,15.10
2017-09-30T12:42:00.376Z,13.70
2017-09-30T12:43:22.685Z,10.60
2017-09-30T12:44:43.975Z,15.20
2017-09-30T12:46:04.780Z,11.00
2017-09-30T12:47:25.520Z,12.60
2017-09-30T12:48:46.251Z,12.40
2017-09-30T12:50:07.319Z,42.90
2017-09-30T12:51:28.115Z,26.10
2017-09-30T12:52:49.937Z,25.80
2017-09-30T12:54:11.288Z,28.30
2017-09-30T12:55:33.050Z,18.80
2017-09-30T12:56:53.853Z,16.60
2017-09-30T12:58:14.562Z,17.50
2017-09-30T12:59:35.583Z,18.50
2017-09-30T13:00:56.839Z,22.20
2017-09-30T13:02:19.084Z,14.40
2017-09-30T13:03:39.846Z,17.40
2017-09-30T13:05:01.565Z,16.60
2017-09-30T13:06:22.471Z,16.90
2017-09-30T13:07:43.256Z,22.20
2017-09-30T13:09:04.340Z,19.10
2017-09-30T13:10:25.092Z,17.30
2017-09-30T13:11:46.815Z,20.80
2017-09-30T13:13:07.571Z,13.90
2017-09-30T13:14:28.813Z,20.50
2017-09-30T13:15:50.248Z,16.40
2017-09-30T13:17:11.136Z,19.30
2017-09-30T13:18:31.856Z,21.00
2017-09-30T13:19:52.977Z,20.10
2017-09-30T13:21:13.730Z,16.60
2017-09-30T13:22:36.302Z,20.20
2017-09-30T13:23:57.074Z,21.20
2017-09-30T13:25:17.680Z,20.00
2017-09-30T13:26:38.409Z,20.80
2017-09-30T13:37:16.623Z,19.50
2017-09-30T13:38:37.440Z,17.90
2017-09-30T13:39:58.320Z,15.20
2017-09-30T13:41:19.054Z,19.00
2017-09-30T13:42:39.989Z,16.60
2017-09-30T13:44:00.733Z,15.50
2017-09-30T13:45:22.072Z,15.70
2017-09-30T13:46:42.760Z,18.00
2017-09-30T13:48:04.576Z,19.90
2017-09-30T13:49:26.445Z,23.00
2017-09-30T13:50:46.991Z,18.20
2017-09-30T13:52:07.693Z,22.30
2017-09-30T13:53:29.678Z,17.00
2017-09-30T13:54:50.469Z,21.00
2017-09-30T13:56:11.938Z,22.40
2017-09-30T13:57:32.580Z,21.10
2017-09-30T13:58:54.450Z,14.30
2017-09-30T14:00:14.944Z,5.70
2017-09-30T14:01:36.352Z,5.00
2017-09-30T14:02:57.339Z,5.60
2017-09-30T14:04:18.143Z,5.30
2017-09-30T14:05:39.274Z,5.90
2017-09-30T14:06:59.975Z,6.50
2017-09-30T14:08:20.562Z,7.50
2017-09-30T14:09:41.479Z,8.30
2017-09-30T14:11:02.333Z,9.40
2017-09-30T14:12:24.114Z,10.00
2017-09-30T14:13:45.141Z,9.70
2017-09-30T14:15:06.373Z,3.90
2017-09-30T14:16:27.141Z,3.60
2017-09-30T14:17:48.675Z,3.00
2017-09-30T14:19:09.664Z,2.80
2017-09-30T14:20:31.256Z,2.90
2017-09-30T14:21:52.470Z,3.30
2017-09-30T14:23:14.045Z,2.90
2017-09-30T14:24:34.934Z,3.90
2017-09-30T14:25:56.073Z,3.90
2017-09-30T14:27:17.629Z,4.10
2017-09-30T14:28:38.385Z,5.50
2017-09-30T14:35:22.595Z,8.50
2017-09-30T14:36:43.304Z,9.90
2017-09-30T14:38:05.238Z,10.30
2017-09-30T14:39:26.121Z,8.30
2017-09-30T14:40:46.986Z,6.50
2017-09-30T14:42:07.624Z,5.90
2017-09-30T14:43:28.319Z,5.70
2017-09-30T14:44:49.927Z,6.40
2017-09-30T14:46:10.542Z,6.00
2017-09-30T14:47:31.241Z,7.60
2017-09-30T14:48:52.531Z,8.50
2017-09-30T14:50:13.976Z,9.00
2017-09-30T14:51:34.642Z,6.80
2017-09-30T14:52:55.319Z,6.70
2017-09-30T14:54:16.155Z,7.30
2017-09-30T14:55:36.684Z,5.80
2017-09-30T14:56:57.814Z,5.00
2017-09-30T14:58:18.475Z,4.80
2017-09-30T14:59:39.240Z,5.10
2017-09-30T15:01:00.663Z,5.40
2017-09-30T15:02:21.429Z,5.30
2017-09-30T15:03:42.741Z,5.40
2017-09-30T15:05:04.064Z,5.50
2017-09-30T15:06:25.194Z,5.60
2017-09-30T15:07:46.566Z,6.80
2017-09-30T15:09:09.379Z,8.00
2017-09-30T15:10:30.304Z,10.00
2017-09-30T15:11:51.150Z,10.10
2017-09-30T15:13:12.435Z,10.40
2017-09-30T15:14:34.973Z,8.60
2017-09-30T15:15:55.931Z,7.60
2017-09-30T15:17:16.821Z,6.40
2017-09-30T15:18:40.260Z,6.80
2017-09-30T15:20:01.890Z,7.60
2017-09-30T15:21:22.972Z,8.70
2017-09-30T15:22:43.709Z,10.70
2017-09-30T15:24:04.929Z,6.90
2017-09-30T15:25:26.265Z,8.10
2017-09-30T15:26:47.268Z,7.30
2017-09-30T15:28:09.746Z,6.90
2017-09-30T15:29:31.087Z,7.80
2017-09-30T15:30:52.781Z,8.30
2017-09-30T15:32:13.812Z,6.90
2017-09-30T15:33:34.306Z,6.40
2017-09-30T15:34:55.051Z,8.60
2017-09-30T15:36:15.873Z,6.90
2017-09-30T15:37:36.383Z,7.10
2017-09-30T15:38:57.385Z,9.50
2017-09-30T15:40:18.729Z,9.40
2017-09-30T15:41:39.714Z,8.70
2017-09-30T15:43:00.688Z,9.30
2017-09-30T15:44:21.405Z,6.80
2017-09-30T15:45:42.526Z,6.60
2017-09-30T15:47:03.478Z,10.00
2017-09-30T15:48:25.265Z,118.20
2017-09-30T15:49:46.893Z,32.20
2017-09-30T15:51:09.257Z,16.00
2017-09-30T15:52:29.853Z,6.40
2017-09-30T15:53:52.817Z,7.50
2017-09-30T15:55:13.896Z,7.00
2017-09-30T15:56:35.558Z,7.30
2017-09-30T15:57:56.445Z,9.30
2017-09-30T15:59:18.043Z,10.90
2017-09-30T16:00:39.552Z,10.40
2017-09-30T16:02:00.955Z,10.30
2017-09-30T16:03:21.884Z,7.40
2017-09-30T16:04:43.229Z,8.30
2017-09-30T16:06:06.106Z,8.90
2017-09-30T16:07:27.304Z,7.90
2017-09-30T16:08:48.217Z,8.00
2017-09-30T16:10:08.893Z,6.70
2017-09-30T16:11:29.854Z,7.40
2017-09-30T16:12:51.407Z,7.50
2017-09-30T16:14:12.721Z,7.70
2017-09-30T16:15:33.310Z,7.60
2017-09-30T16:16:53.987Z,8.90
2017-09-30T16:18:15.300Z,13.00
2017-09-30T16:19:37.232Z,22.60
2017-09-30T16:20:59.762Z,12.70
2017-09-30T16:22:22.691Z,9.60
2017-09-30T16:23:44.543Z,8.80
2017-09-30T16:25:06.438Z,8.90
2017-09-30T16:26:27.831Z,8.70
2017-09-30T16:27:49.665Z,8.40
2017-09-30T16:29:10.975Z,9.10
2017-09-30T16:30:32.643Z,9.10
2017-09-30T16:31:59.774Z,9.60
2017-09-30T16:33:21.711Z,8.60
2017-09-30T16:34:43.497Z,9.30
2017-09-30T16:36:04.416Z,14.30
2017-09-30T16:37:25.039Z,19.30
2017-09-30T16:38:45.664Z,23.40
2017-09-30T16:40:06.676Z,24.90
2017-09-30T16:41:27.336Z,25.00
2017-09-30T16:42:48.070Z,22.60
2017-09-30T16:44:10.061Z,16.60
2017-09-30T16:45:30.856Z,18.50
2017-09-30T16:46:51.676Z,13.70
2017-09-30T16:48:12.365Z,12.30
2017-09-30T16:49:33.022Z,12.10
2017-09-30T16:50:53.993Z,11.10
2017-09-30T16:52:15.437Z,11.10
2017-09-30T16:53:36.011Z,10.30
2017-09-30T16:54:56.747Z,9.20
2017-09-30T16:56:19.401Z,10.70
2017-09-30T16:57:40.874Z,0.00
2017-09-30T16:59:01.410Z,10.10
2017-09-30T17:00:23.677Z,9.40
2017-09-30T17:01:44.334Z,10.80
2017-09-30T17:03:08.184Z,9.20
2017-09-30T17:04:28.841Z,0.00
2017-09-30T17:05:52.151Z,17.00
2017-09-30T17:07:16.066Z,0.00
2017-09-30T17:08:37.701Z,0.00
2017-09-30T17:09:59.100Z,11.70
2017-09-30T17:11:21.506Z,9.40
2017-09-30T17:12:45.270Z,8.30
2017-09-30T17:14:16.269Z,8.40
2017-09-30T17:15:44.776Z,7.60
2017-09-30T17:17:06.217Z,6.80
2017-09-30T17:18:31.104Z,6.70
2017-09-30T17:19:52.970Z,6.50
2017-09-30T17:21:14.588Z,6.40
2017-09-30T17:22:35.763Z,5.60
2017-09-30T17:23:57.191Z,5.50
2017-09-30T17:25:18.582Z,5.10
2017-09-30T17:26:39.939Z,5.30
2017-09-30T17:28:02.532Z,5.50
2017-09-30T17:29:25.694Z,6.00
2017-09-30T17:30:47.328Z,0.00
2017-09-30T17:32:10.640Z,6.20
2017-09-30T17:33:33.310Z,0.00
2017-09-30T17:34:54.924Z,5.00
2017-09-30T17:36:19.629Z,5.00
2017-09-30T17:37:41.959Z,5.50
2017-09-30T17:39:03.072Z,6.30
2017-09-30T17:40:25.372Z,5.30
2017-09-30T17:41:46.540Z,5.20
2017-09-30T17:43:07.356Z,5.90
2017-09-30T17:44:31.258Z,6.10
2017-09-30T17:45:54.607Z,7.20
2017-09-30T17:47:16.159Z,0.00
2017-09-30T17:56:01.715Z,7.90
2017-09-30T17:57:23.089Z,8.60
2017-09-30T17:58:44.497Z,9.10
2017-09-30T18:00:05.740Z,8.80
2017-09-30T18:01:27.683Z,8.00
2017-09-30T18:02:49.825Z,9.30
2017-09-30T18:04:12.181Z,9.40
2017-09-30T18:05:33.081Z,9.20
2017-09-30T18:06:54.465Z,9.20
2017-09-30T18:08:16.072Z,9.40